Time;durP1;ratioP1;P1;durP2;ratioP2;P2;SDS_P1;SDS_P2;PMS_P1;PMS_P2;Temp;Humidity;BMP_temperature;BMP_pressure;BME280_temperature;BME280_humidity;BME280_pressure;Samples;Min_cycle;Max_cycle;Signal;HPM_P1;HPM_P2
2023/09/07 00:01:47;;;;;;;7.30;6.55;;;16.50;99.90;;;;;;5032821;28;20498;-56
2023/09/07 00:04:15;;;;;;;8.95;7.43;;;16.50;99.90;;;;;;5031404;28;20112;-56
2023/09/07 00:06:43;;;;;;;9.82;7.03;;;16.60;99.90;;;;;;5048057;28;20395;-56
2023/09/07 00:09:11;;;;;;;11.05;7.55;;;16.60;99.90;;;;;;5029064;28;20052;-58
2023/09/07 00:11:37;;;;;;;8.73;6.85;;;16.50;99.90;;;;;;5032986;28;20514;-57
2023/09/07 00:14:02;;;;;;;8.60;6.88;;;16.50;99.90;;;;;;5028328;28;20033;-57
2023/09/07 00:16:28;;;;;;;9.18;7.25;;;16.50;99.90;;;;;;5029164;28;20084;-56
2023/09/07 00:18:53;;;;;;;12.07;7.03;;;16.40;99.90;;;;;;5032567;28;20113;-57
2023/09/07 00:21:19;;;;;;;9.63;7.25;;;16.40;99.90;;;;;;5032961;28;20026;-57
2023/09/07 00:23:44;;;;;;;8.13;6.90;;;16.30;99.90;;;;;;5031787;28;20048;-57
2023/09/07 00:26:12;;;;;;;7.97;6.97;;;16.30;99.90;;;;;;5030429;28;20038;-57
2023/09/07 00:28:38;;;;;;;8.38;6.50;;;16.20;99.90;;;;;;5032151;28;20025;-57
2023/09/07 00:31:03;;;;;;;10.02;6.88;;;16.20;99.90;;;;;;5032237;28;20145;-57
2023/09/07 00:33:30;;;;;;;10.27;6.80;;;16.20;99.90;;;;;;5032125;28;20394;-57
2023/09/07 00:35:55;;;;;;;10.63;7.57;;;16.20;99.90;;;;;;5026596;28;20560;-56
2023/09/07 00:38:21;;;;;;;10.63;7.35;;;16.10;99.90;;;;;;5032595;28;20072;-57
2023/09/07 00:40:46;;;;;;;8.75;6.90;;;16.20;99.90;;;;;;5031974;28;20022;-57
2023/09/07 00:43:12;;;;;;;10.77;7.95;;;16.10;99.90;;;;;;5032250;28;20107;-56
2023/09/07 00:45:38;;;;;;;9.48;7.40;;;16.10;99.90;;;;;;5029464;28;20447;-57
2023/09/07 00:48:05;;;;;;;15.40;7.97;;;16.10;99.90;;;;;;5032255;28;20764;-56
2023/09/07 00:50:30;;;;;;;9.20;7.95;;;16.10;99.90;;;;;;5025727;28;20190;-56
2023/09/07 00:52:57;;;;;;;8.60;7.65;;;16.10;99.90;;;;;;5031434;28;20089;-56
2023/09/07 00:55:23;;;;;;;10.02;7.55;;;16.10;99.90;;;;;;5031710;28;20025;-56
2023/09/07 00:57:49;;;;;;;9.95;8.35;;;16.10;99.90;;;;;;5024631;28;20048;-56
2023/09/07 01:00:14;;;;;;;12.82;8.57;;;16.10;99.90;;;;;;5031227;28;20471;-56
2023/09/07 01:02:42;;;;;;;9.85;7.68;;;16.10;99.90;;;;;;5031937;28;20044;-56
2023/09/07 01:05:07;;;;;;;8.68;7.78;;;16.10;99.90;;;;;;5031247;28;20104;-56
2023/09/07 01:07:39;;;;;;;9.68;8.15;;;16.00;99.90;;;;;;5028073;28;20216;-56
2023/09/07 01:10:06;;;;;;;11.52;8.18;;;16.00;99.90;;;;;;5031429;28;20034;-56
2023/09/07 01:12:32;;;;;;;11.25;7.32;;;16.00;99.90;;;;;;5032096;28;20021;-56
2023/09/07 01:14:58;;;;;;;12.02;9.05;;;16.00;99.90;;;;;;5031847;28;20079;-57
2023/09/07 01:17:24;;;;;;;11.60;9.10;;;15.90;99.90;;;;;;5015388;28;20054;-57
2023/09/07 01:19:51;;;;;;;11.68;8.77;;;15.90;99.90;;;;;;5029895;28;20087;-57
2023/09/07 01:22:18;;;;;;;12.32;8.05;;;15.90;99.90;;;;;;5031931;28;20104;-57
2023/09/07 01:24:46;;;;;;;11.65;8.50;;;15.90;99.90;;;;;;5031653;28;20462;-57
2023/09/07 01:27:13;;;;;;;15.63;8.90;;;15.80;99.90;;;;;;5027667;28;20029;-56
2023/09/07 01:29:39;;;;;;;9.77;8.65;;;15.80;99.90;;;;;;5029028;28;20108;-56
2023/09/07 01:32:05;;;;;;;9.93;8.73;;;15.70;99.90;;;;;;5026183;28;20030;-56
2023/09/07 01:34:32;;;;;;;19.40;8.65;;;15.70;99.90;;;;;;5028548;28;20025;-57
2023/09/07 01:36:57;;;;;;;9.13;7.97;;;15.70;99.90;;;;;;5030228;28;20079;-57
2023/09/07 01:39:23;;;;;;;9.18;8.15;;;15.60;99.90;;;;;;5029238;28;20487;-57
2023/09/07 01:41:48;;;;;;;12.23;8.65;;;15.60;99.90;;;;;;5038335;28;20079;-57
2023/09/07 01:44:14;;;;;;;13.07;9.27;;;15.50;99.90;;;;;;5031110;28;20418;-56
2023/09/07 01:46:39;;;;;;;8.55;7.68;;;15.50;99.90;;;;;;5030887;28;20025;-56
2023/09/07 01:49:05;;;;;;;11.13;9.13;;;15.50;99.90;;;;;;5024251;28;20029;-56
2023/09/07 01:51:30;;;;;;;9.68;8.00;;;15.50;99.90;;;;;;5031073;28;20018;-56
2023/09/07 01:53:56;;;;;;;15.32;9.02;;;15.50;99.90;;;;;;5030947;28;20021;-56
2023/09/07 01:56:21;;;;;;;8.93;7.85;;;15.40;99.90;;;;;;5031005;28;20030;-57
2023/09/07 01:58:47;;;;;;;9.73;8.73;;;15.40;99.90;;;;;;5027292;28;21149;-56
2023/09/07 02:01:25;;;;;;;11.98;8.45;;;15.40;99.90;;;;;;5030851;28;20037;-56
2023/09/07 02:03:52;;;;;;;8.90;7.95;;;15.40;99.90;;;;;;5029443;28;20025;-56
2023/09/07 02:06:18;;;;;;;8.85;7.95;;;15.40;99.90;;;;;;5030888;28;20530;-56
2023/09/07 02:08:43;;;;;;;10.18;8.32;;;15.40;99.90;;;;;;5028367;28;20064;-56
2023/09/07 02:11:09;;;;;;;11.50;8.32;;;15.30;99.90;;;;;;5024240;28;20475;-56
2023/09/07 02:13:35;;;;;;;10.43;8.57;;;15.30;99.90;;;;;;5030515;28;20101;-56
2023/09/07 02:16:05;;;;;;;13.02;9.25;;;15.30;99.90;;;;;;5030687;28;20075;-56
2023/09/07 02:18:31;;;;;;;11.80;9.00;;;15.30;99.90;;;;;;5021749;28;20526;-56
2023/09/07 02:21:04;;;;;;;11.25;8.75;;;15.30;99.90;;;;;;5029664;28;20033;-56
2023/09/07 02:23:31;;;;;;;12.00;9.07;;;15.20;99.90;;;;;;5030388;28;20445;-56
2023/09/07 02:25:57;;;;;;;12.15;9.23;;;15.20;99.90;;;;;;5030367;28;20021;-56
2023/09/07 02:28:24;;;;;;;13.13;9.77;;;15.30;99.90;;;;;;5025602;28;20028;-57
2023/09/07 02:30:49;;;;;;;15.40;9.27;;;15.20;99.90;;;;;;5029432;28;20368;-56
2023/09/07 02:33:15;;;;;;;13.60;9.73;;;15.30;99.90;;;;;;5030291;28;20091;-56
2023/09/07 02:35:40;;;;;;;13.43;9.38;;;15.20;99.90;;;;;;5030354;28;20021;-56
2023/09/07 02:38:06;;;;;;;12.75;8.68;;;15.20;99.90;;;;;;5029079;28;20429;-56
2023/09/07 02:40:31;;;;;;;14.63;9.15;;;15.20;99.90;;;;;;5028848;28;20415;-56
2023/09/07 02:42:57;;;;;;;14.30;9.57;;;15.20;99.90;;;;;;5030078;28;20092;-56
2023/09/07 02:45:23;;;;;;;14.77;10.75;;;15.20;99.90;;;;;;5030173;28;20040;-57
2023/09/07 02:47:50;;;;;;;10.10;8.95;;;15.20;99.90;;;;;;5029687;28;20028;-56
2023/09/07 02:50:17;;;;;;;12.93;9.88;;;15.20;99.90;;;;;;5018973;28;20072;-56
2023/09/07 02:52:43;;;;;;;13.35;10.07;;;15.10;99.90;;;;;;5029974;28;20025;-56
2023/09/07 02:55:08;;;;;;;14.85;10.57;;;15.10;99.90;;;;;;5029923;28;20033;-56
2023/09/07 02:57:35;;;;;;;12.80;10.18;;;15.10;99.90;;;;;;5029704;28;20048;-56
2023/09/07 03:00:01;;;;;;;11.13;9.85;;;15.10;99.90;;;;;;5026467;28;20042;-57
2023/09/07 03:02:31;;;;;;;10.30;9.20;;;15.10;99.90;;;;;;5044987;28;20083;-56
2023/09/07 03:04:58;;;;;;;15.38;11.02;;;15.10;99.90;;;;;;5029704;28;20475;-56
2023/09/07 03:07:24;;;;;;;15.32;10.95;;;15.10;99.90;;;;;;5029995;28;20371;-56
2023/09/07 03:09:52;;;;;;;15.13;10.25;;;15.20;99.90;;;;;;5027053;28;20026;-57
2023/09/07 03:12:17;;;;;;;13.52;9.25;;;15.10;99.90;;;;;;5024587;28;20529;-57
2023/09/07 03:14:44;;;;;;;19.58;10.40;;;15.10;99.90;;;;;;5029174;28;20021;-57
2023/09/07 03:17:10;;;;;;;13.38;9.98;;;15.10;99.90;;;;;;5029637;28;20028;-57
2023/09/07 03:19:37;;;;;;;11.80;9.68;;;15.10;99.90;;;;;;5028251;28;20290;-57
2023/09/07 03:22:03;;;;;;;12.27;10.18;;;15.10;99.90;;;;;;5040834;28;20025;-57
2023/09/07 03:24:29;;;;;;;13.63;9.82;;;15.10;99.90;;;;;;5023406;28;20040;-57
2023/09/07 03:26:54;;;;;;;14.27;11.05;;;15.00;99.90;;;;;;5023834;28;20391;-56
2023/09/07 03:29:20;;;;;;;16.48;11.43;;;15.00;99.90;;;;;;5028589;28;20099;-57
2023/09/07 03:31:45;;;;;;;13.70;9.80;;;15.00;99.90;;;;;;5021809;28;20096;-56
2023/09/07 03:34:11;;;;;;;12.68;9.65;;;15.00;99.90;;;;;;5028587;28;20018;-57
2023/09/07 03:36:36;;;;;;;14.35;10.27;;;15.00;99.90;;;;;;5029387;28;20018;-56
2023/09/07 03:39:02;;;;;;;14.70;10.13;;;15.00;99.90;;;;;;5024074;28;20064;-56
2023/09/07 03:41:30;;;;;;;16.92;12.13;;;14.90;99.90;;;;;;5020313;28;20055;-56
2023/09/07 03:43:56;;;;;;;14.02;10.55;;;14.90;99.90;;;;;;5024810;28;20037;-56
2023/09/07 03:46:21;;;;;;;16.02;11.00;;;14.90;99.90;;;;;;5023879;28;20029;-56
2023/09/07 03:48:47;;;;;;;15.23;12.02;;;14.90;99.90;;;;;;5023030;28;20034;-57
2023/09/07 03:51:13;;;;;;;15.38;9.77;;;14.90;99.90;;;;;;5022046;28;20062;-56
2023/09/07 03:53:38;;;;;;;16.55;10.32;;;14.90;99.90;;;;;;5022106;28;20501;-56
2023/09/07 03:56:05;;;;;;;17.80;10.65;;;14.90;99.90;;;;;;5029559;28;20096;-57
2023/09/07 03:58:30;;;;;;;14.82;10.85;;;14.90;99.90;;;;;;5020752;28;20434;-57
2023/09/07 04:00:59;;;;;;;13.48;9.48;;;14.80;99.90;;;;;;5015638;28;20029;-57
2023/09/07 04:03:25;;;;;;;15.05;9.68;;;14.80;99.90;;;;;;5015961;28;20395;-57
2023/09/07 04:05:51;;;;;;;11.73;9.65;;;14.80;99.90;;;;;;5022762;28;20087;-57
2023/09/07 04:08:16;;;;;;;16.17;11.05;;;14.70;99.90;;;;;;5029164;28;20034;-57
2023/09/07 04:10:42;;;;;;;11.43;9.70;;;14.70;99.90;;;;;;5028019;28;20061;-57
2023/09/07 04:13:07;;;;;;;18.67;10.73;;;14.70;99.90;;;;;;5026892;28;20109;-57
2023/09/07 04:15:44;;;;;;;14.63;11.57;;;14.70;99.90;;;;;;5028989;28;20018;-57
2023/09/07 04:18:12;;;;;;;14.75;11.18;;;14.70;99.90;;;;;;5018865;28;20102;-57
2023/09/07 04:20:38;;;;;;;18.30;11.70;;;14.70;99.90;;;;;;5024526;28;20079;-57
2023/09/07 04:23:03;;;;;;;15.65;10.30;;;14.70;99.90;;;;;;5028538;28;20029;-57
2023/09/07 04:25:29;;;;;;;13.93;10.75;;;14.70;99.90;;;;;;5028921;28;20026;-57
2023/09/07 04:27:56;;;;;;;14.05;11.43;;;14.60;99.90;;;;;;5030215;28;20022;-56
2023/09/07 04:30:22;;;;;;;18.83;11.50;;;14.60;99.90;;;;;;5032570;28;20024;-56
2023/09/07 04:32:48;;;;;;;17.30;11.02;;;14.70;99.90;;;;;;5026616;28;20053;-56
2023/09/07 04:35:13;;;;;;;14.98;11.15;;;14.60;99.90;;;;;;5032590;28;20053;-56
2023/09/07 04:37:42;;;;;;;12.30;11.00;;;14.60;99.90;;;;;;5032505;28;20498;-56
2023/09/07 04:40:08;;;;;;;15.20;10.00;;;14.50;99.90;;;;;;5032163;28;20495;-56
2023/09/07 04:42:33;;;;;;;12.75;9.88;;;14.40;99.90;;;;;;5029184;28;20035;-56
2023/09/07 04:44:59;;;;;;;14.57;11.18;;;14.30;99.90;;;;;;5032187;28;20080;-56
2023/09/07 04:47:24;;;;;;;12.57;10.20;;;14.30;99.90;;;;;;5029216;28;20021;-56
2023/09/07 04:49:53;;;;;;;12.35;10.05;;;14.20;99.90;;;;;;5023256;28;20088;-56
2023/09/07 04:52:18;;;;;;;14.15;9.82;;;14.20;99.90;;;;;;5029584;28;20026;-56
2023/09/07 04:54:44;;;;;;;15.02;10.38;;;14.20;99.90;;;;;;5025365;28;20026;-56
2023/09/07 04:57:10;;;;;;;14.77;10.52;;;14.20;99.90;;;;;;5027947;28;20112;-56
2023/09/07 04:59:36;;;;;;;14.48;10.10;;;14.10;99.90;;;;;;5031506;28;20379;-56
2023/09/07 05:02:01;;;;;;;11.50;9.57;;;14.10;99.90;;;;;;5031118;28;20040;-56
2023/09/07 05:04:28;;;;;;;15.50;11.18;;;14.10;99.90;;;;;;5024682;28;20030;-57
2023/09/07 05:06:53;;;;;;;15.05;10.98;;;14.10;99.90;;;;;;5031748;28;20036;-56
2023/09/07 05:09:20;;;;;;;20.50;11.23;;;14.10;99.90;;;;;;5031157;28;20033;-56
2023/09/07 05:11:45;;;;;;;14.10;10.30;;;14.10;99.90;;;;;;5031620;28;20026;-56
2023/09/07 05:14:11;;;;;;;14.13;11.65;;;14.10;99.90;;;;;;5026824;28;20364;-56
2023/09/07 05:16:36;;;;;;;14.38;11.27;;;14.20;99.90;;;;;;5031323;28;20021;-56
2023/09/07 05:19:02;;;;;;;14.82;11.70;;;14.20;99.90;;;;;;5027802;28;20029;-56
2023/09/07 05:21:27;;;;;;;14.02;11.00;;;14.20;99.90;;;;;;5023782;28;20021;-56
2023/09/07 05:23:53;;;;;;;17.95;12.57;;;14.30;99.90;;;;;;5021580;28;20030;-56
2023/09/07 05:26:25;;;;;;;16.48;12.23;;;14.30;99.90;;;;;;5031513;28;20035;-56
2023/09/07 05:28:51;;;;;;;14.10;11.07;;;14.30;99.90;;;;;;5030146;28;20218;-56
2023/09/07 05:31:16;;;;;;;14.57;11.63;;;14.30;99.90;;;;;;5031508;28;20052;-56
2023/09/07 05:33:42;;;;;;;12.45;10.23;;;14.40;99.90;;;;;;5030654;28;20037;-57
2023/09/07 05:36:07;;;;;;;13.90;11.30;;;14.40;99.90;;;;;;5025674;28;20026;-56
2023/09/07 05:38:33;;;;;;;16.80;11.43;;;14.50;99.90;;;;;;5018261;28;20057;-56
2023/09/07 05:40:59;;;;;;;11.85;10.18;;;14.50;99.90;;;;;;5030479;28;20029;-56
2023/09/07 05:43:24;;;;;;;13.65;9.45;;;14.50;99.90;;;;;;5030877;28;20033;-56
2023/09/07 05:45:50;;;;;;;12.13;10.40;;;14.50;99.90;;;;;;5021551;28;20416;-56
2023/09/07 05:48:18;;;;;;;15.13;11.05;;;14.60;99.90;;;;;;5028121;28;20490;-56
2023/09/07 05:50:44;;;;;;;16.00;11.35;;;14.70;99.90;;;;;;5024304;28;20406;-56
2023/09/07 05:53:10;;;;;;;11.75;9.65;;;14.70;99.90;;;;;;5044495;28;20032;-56
2023/09/07 05:55:35;;;;;;;12.57;10.32;;;14.70;99.90;;;;;;5020467;28;20022;-57
2023/09/07 05:58:06;;;;;;;13.50;10.20;;;14.70;99.90;;;;;;5030208;28;20022;-57
2023/09/07 06:00:33;;;;;;;13.75;10.52;;;14.80;99.90;;;;;;5029053;28;20025;-56
2023/09/07 06:02:59;;;;;;;11.43;10.23;;;14.90;99.90;;;;;;5030961;28;20033;-56
2023/09/07 06:05:24;;;;;;;11.95;10.63;;;14.90;99.90;;;;;;5026867;28;20110;-57
2023/09/07 06:07:50;;;;;;;15.40;10.82;;;15.00;99.90;;;;;;5031062;28;20056;-57
2023/09/07 06:10:17;;;;;;;13.48;10.15;;;15.00;99.90;;;;;;5030235;28;20026;-56
2023/09/07 06:12:42;;;;;;;11.40;10.20;;;15.00;99.90;;;;;;5030439;28;20028;-57
2023/09/07 06:15:09;;;;;;;17.33;11.18;;;15.00;99.90;;;;;;5026008;28;20111;-56
2023/09/07 06:17:34;;;;;;;17.13;12.35;;;15.10;99.90;;;;;;5026649;28;20498;-56
2023/09/07 06:20:00;;;;;;;21.13;11.90;;;15.10;99.90;;;;;;5025055;28;20048;-56
2023/09/07 06:22:25;;;;;;;14.88;11.30;;;15.20;99.90;;;;;;5025366;28;20060;-56
2023/09/07 06:24:51;;;;;;;14.73;12.07;;;15.30;99.90;;;;;;5025244;28;20321;-56
2023/09/07 06:27:16;;;;;;;15.70;11.75;;;15.30;99.90;;;;;;5025455;28;20021;-56
2023/09/07 06:29:42;;;;;;;19.98;12.93;;;15.40;99.90;;;;;;5026968;28;20578;-56
2023/09/07 06:32:07;;;;;;;14.20;11.82;;;15.50;99.90;;;;;;5018629;28;20032;-56
2023/09/07 06:34:33;;;;;;;16.00;10.50;;;15.50;99.90;;;;;;5022601;28;20025;-57
2023/09/07 06:36:58;;;;;;;16.10;10.10;;;15.50;99.90;;;;;;5028846;28;20119;-56
2023/09/07 06:39:24;;;;;;;15.68;11.70;;;15.60;99.90;;;;;;5028132;28;20053;-56
2023/09/07 06:41:50;;;;;;;16.02;11.70;;;15.70;99.90;;;;;;5018474;28;20058;-56
2023/09/07 06:44:15;;;;;;;13.27;11.10;;;15.70;99.90;;;;;;5030007;28;20030;-57
2023/09/07 06:46:41;;;;;;;14.07;10.95;;;15.80;99.90;;;;;;5023511;28;20056;-56
2023/09/07 06:49:07;;;;;;;14.07;10.73;;;15.90;99.90;;;;;;5029671;28;20132;-56
2023/09/07 06:51:33;;;;;;;12.05;10.25;;;15.90;99.90;;;;;;5029672;28;20025;-57
2023/09/07 06:53:59;;;;;;;15.45;10.98;;;16.00;99.90;;;;;;5029716;28;20069;-56
2023/09/07 06:56:24;;;;;;;14.25;11.52;;;16.10;99.90;;;;;;5029212;28;20037;-56
2023/09/07 06:58:51;;;;;;;14.02;10.57;;;16.20;99.90;;;;;;5027415;28;20075;-56
2023/09/07 07:01:17;;;;;;;17.50;11.13;;;16.30;99.90;;;;;;5023843;28;20442;-56
2023/09/07 07:03:43;;;;;;;15.10;10.30;;;16.40;99.90;;;;;;5020235;28;20037;-56
2023/09/07 07:06:09;;;;;;;14.13;10.93;;;16.50;99.90;;;;;;5028763;28;20108;-56
2023/09/07 07:08:34;;;;;;;15.50;11.20;;;16.60;99.90;;;;;;5028890;28;20044;-55
2023/09/07 07:11:00;;;;;;;13.13;10.70;;;16.70;99.90;;;;;;5029299;28;20414;-55
2023/09/07 07:13:26;;;;;;;12.48;9.95;;;16.80;99.90;;;;;;5026417;28;20029;-56
2023/09/07 07:15:51;;;;;;;15.55;11.60;;;17.00;99.90;;;;;;5025650;28;20025;-56
2023/09/07 07:18:17;;;;;;;16.55;11.05;;;17.10;99.90;;;;;;5017178;28;20033;-56
2023/09/07 07:20:46;;;;;;;11.73;9.75;;;17.20;99.90;;;;;;5023815;28;20045;-56
2023/09/07 07:23:12;;;;;;;13.05;10.23;;;17.40;99.90;;;;;;5016412;28;20034;-56
2023/09/07 07:25:38;;;;;;;14.45;10.85;;;18.00;99.90;;;;;;5019500;28;20471;-56
2023/09/07 07:28:05;;;;;;;14.18;9.60;;;18.60;99.90;;;;;;5025804;28;20034;-56
2023/09/07 07:30:40;;;;;;;15.30;8.82;;;19.10;99.90;;;;;;5018954;28;20024;-56
2023/09/07 07:33:06;;;;;;;10.75;8.82;;;19.50;99.90;;;;;;5019068;28;20033;-56
2023/09/07 07:35:32;;;;;;;15.05;9.32;;;19.70;99.90;;;;;;5015436;28;20032;-56
2023/09/07 07:37:58;;;;;;;9.93;8.90;;;19.80;99.90;;;;;;5017203;28;20026;-56
2023/09/07 07:40:23;;;;;;;10.93;8.38;;;19.70;99.90;;;;;;5024650;28;20033;-56
2023/09/07 07:42:51;;;;;;;14.35;9.98;;;19.60;99.90;;;;;;5025713;28;20096;-56
2023/09/07 07:45:19;;;;;;;11.13;9.50;;;19.60;99.90;;;;;;5035056;28;20080;-56
2023/09/07 07:47:45;;;;;;;11.75;9.27;;;19.50;99.90;;;;;;5034227;28;20437;-56
2023/09/07 07:50:11;;;;;;;13.73;9.07;;;19.60;99.90;;;;;;5023757;28;20030;-56
2023/09/07 07:52:36;;;;;;;15.20;10.05;;;20.10;99.90;;;;;;5020145;28;20465;-56
2023/09/07 07:55:02;;;;;;;10.65;8.52;;;20.80;99.90;;;;;;5026815;28;20033;-56
2023/09/07 07:57:28;;;;;;;10.10;7.95;;;21.50;99.90;;;;;;5029184;28;20030;-56
2023/09/07 07:59:55;;;;;;;13.45;8.60;;;22.30;99.90;;;;;;5024165;28;20030;-56
2023/09/07 08:02:20;;;;;;;10.65;8.07;;;23.10;99.90;;;;;;5024068;28;20018;-56
2023/09/07 08:04:46;;;;;;;8.05;7.18;;;23.70;99.90;;;;;;5041339;28;20030;-57
2023/09/07 08:07:11;;;;;;;7.63;6.82;;;24.20;99.90;;;;;;5030970;28;20041;-56
2023/09/07 08:09:37;;;;;;;9.75;7.07;;;24.50;99.90;;;;;;5025054;28;20223;-56
2023/09/07 08:12:03;;;;;;;8.48;7.50;;;24.70;99.90;;;;;;5032778;28;20665;-56
2023/09/07 08:14:30;;;;;;;8.30;7.10;;;24.90;99.70;;;;;;5021943;28;20034;-57
2023/09/07 08:16:57;;;;;;;8.48;6.90;;;25.10;99.30;;;;;;5027758;28;20021;-56
2023/09/07 08:19:22;;;;;;;7.30;6.60;;;25.60;99.20;;;;;;5043645;28;20036;-56
2023/09/07 08:21:48;;;;;;;7.00;6.15;;;26.70;97.40;;;;;;5025189;28;20029;-57
2023/09/07 08:24:13;;;;;;;7.47;6.22;;;28.30;94.70;;;;;;5024057;28;20029;-57
2023/09/07 08:26:39;;;;;;;10.75;6.30;;;29.50;92.20;;;;;;5021619;28;20033;-57
2023/09/07 08:29:06;;;;;;;6.70;6.10;;;30.90;89.50;;;;;;5022957;28;20029;-57
2023/09/07 08:31:33;;;;;;;6.85;5.50;;;32.00;83.50;;;;;;5026282;28;20536;-57
2023/09/07 08:34:04;;;;;;;8.13;5.80;;;32.70;79.10;;;;;;5026311;28;20033;-57
2023/09/07 08:36:33;;;;;;;6.68;4.80;;;33.80;75.60;;;;;;5028444;28;20515;-57
2023/09/07 08:39:07;;;;;;;8.50;5.35;;;34.70;73.10;;;;;;5046218;28;20510;-57
2023/09/07 08:41:44;;;;;;;8.85;5.63;;;35.30;72.60;;;;;;5017694;28;20026;-58
2023/09/07 08:44:19;;;;;;;11.48;5.55;;;36.00;66.80;;;;;;5025345;28;20374;-58
2023/09/07 08:46:47;;;;;;;5.72;5.13;;;36.80;66.10;;;;;;5018930;28;20105;-57
2023/09/07 08:49:12;;;;;;;7.80;5.25;;;36.60;64.70;;;;;;5030414;28;20021;-58
2023/09/07 08:51:38;;;;;;;6.53;5.45;;;36.80;65.10;;;;;;5027854;28;20602;-58
2023/09/07 08:54:10;;;;;;;7.25;4.82;;;36.90;63.90;;;;;;5030653;28;20026;-58
2023/09/07 08:56:35;;;;;;;6.07;4.55;;;37.50;62.40;;;;;;5030665;28;20506;-58
2023/09/07 08:59:01;;;;;;;5.15;4.65;;;38.00;60.80;;;;;;5031311;28;20021;-58
2023/09/07 09:01:28;;;;;;;4.30;3.90;;;38.80;59.90;;;;;;5029473;28;20026;-57
2023/09/07 09:03:54;;;;;;;4.50;4.15;;;38.70;61.40;;;;;;5024767;28;20052;-58
2023/09/07 09:06:22;;;;;;;5.22;4.47;;;38.90;59.10;;;;;;5025379;28;20485;-58
2023/09/07 09:08:53;;;;;;;5.00;4.28;;;38.70;59.10;;;;;;5030208;28;20029;-58
2023/09/07 09:11:20;;;;;;;6.13;4.50;;;38.90;57.50;;;;;;5028495;28;20116;-58
2023/09/07 09:13:47;;;;;;;6.00;5.20;;;38.90;59.30;;;;;;5026605;28;20083;-58
2023/09/07 09:16:13;;;;;;;5.28;4.47;;;38.50;56.80;;;;;;5030067;28;20021;-58
2023/09/07 09:18:47;;;;;;;4.82;4.40;;;38.90;57.40;;;;;;5024530;28;20109;-58
2023/09/07 09:21:14;;;;;;;7.32;4.90;;;38.60;57.70;;;;;;5042578;28;20120;-58
2023/09/07 09:23:40;;;;;;;12.85;5.28;;;38.50;55.90;;;;;;5027282;28;20448;-60
2023/09/07 09:26:06;;;;;;;4.80;4.35;;;38.30;57.10;;;;;;5031832;28;20541;-60
2023/09/07 09:28:32;;;;;;;6.18;4.68;;;38.40;58.80;;;;;;5024779;28;20026;-60
2023/09/07 09:31:03;;;;;;;5.45;4.15;;;39.30;56.50;;;;;;5030870;28;20037;-60
2023/09/07 09:33:31;;;;;;;7.40;4.70;;;39.00;55.50;;;;;;5027232;28;20417;-60
2023/09/07 09:35:57;;;;;;;9.17;4.80;;;39.20;56.30;;;;;;5021570;28;20443;-60
2023/09/07 09:38:23;;;;;;;6.43;4.88;;;39.50;56.30;;;;;;5026810;28;20083;-59
2023/09/07 09:40:49;;;;;;;5.47;4.25;;;39.80;55.50;;;;;;5029202;28;20038;-60
2023/09/07 09:43:15;;;;;;;11.82;5.10;;;39.20;58.20;;;;;;5025622;28;20409;-60
2023/09/07 09:45:40;;;;;;;7.93;5.07;;;39.20;57.10;;;;;;5028361;28;20031;-60
2023/09/07 09:48:06;;;;;;;6.22;4.80;;;39.80;57.20;;;;;;5030499;28;20041;-60
2023/09/07 09:50:39;;;;;;;8.10;4.88;;;39.90;55.10;;;;;;5022723;28;20028;-60
2023/09/07 09:53:07;;;;;;;6.90;4.18;;;40.30;56.00;;;;;;5030161;28;20418;-60
2023/09/07 09:55:36;;;;;;;7.07;4.55;;;40.00;56.30;;;;;;5018945;28;20112;-60
2023/09/07 09:58:02;;;;;;;;;;;40.10;54.40;;;;;;5022894;28;20086;-59
2023/09/07 10:00:29;;;;;;;7.47;4.78;;;40.10;54.00;;;;;;5027345;28;19909;-59
2023/09/07 10:03:00;;;;;;;8.48;4.68;;;39.80;53.90;;;;;;5027823;28;20026;-59
2023/09/07 10:05:27;;;;;;;5.68;4.55;;;39.60;56.60;;;;;;5020064;28;20479;-59
2023/09/07 10:07:52;;;;;;;5.68;4.70;;;39.80;54.60;;;;;;5030865;28;20557;-59
2023/09/07 10:10:19;;;;;;;6.68;4.60;;;40.30;54.60;;;;;;5036420;28;20038;-62
2023/09/07 10:12:50;;;;;;;9.70;4.47;;;40.70;53.60;;;;;;5024735;28;20026;-59
2023/09/07 10:15:24;;;;;;;6.07;4.95;;;40.60;54.20;;;;;;5029427;28;20030;-59
2023/09/07 10:17:50;;;;;;;8.60;4.85;;;40.80;51.00;;;;;;5030684;28;20021;-59
2023/09/07 10:20:17;;;;;;;6.82;5.13;;;41.10;52.80;;;;;;5030246;28;20029;-59
2023/09/07 10:22:43;;;;;;;4.80;4.20;;;40.80;51.30;;;;;;5030426;28;20343;-60
2023/09/07 10:25:22;;;;;;;9.43;4.15;;;40.70;51.00;;;;;;5028717;28;21215;-59
2023/09/07 10:27:47;;;;;;;;;;;41.00;50.70;;;;;;5027340;28;20025;-59
2023/09/07 10:30:15;;;;;;;5.10;4.38;;;41.20;51.70;;;;;;5029696;28;20377;-60
2023/09/07 10:32:41;;;;;;;9.18;4.18;;;41.30;52.50;;;;;;5030452;28;20020;-59
2023/09/07 10:35:18;;;;;;;8.25;4.05;;;41.20;50.90;;;;;;5029596;28;20399;-60
2023/09/07 10:37:48;;;;;;;5.55;4.13;;;41.60;50.60;;;;;;5043448;28;20025;-60
2023/09/07 10:40:22;;;;;;;5.45;4.05;;;41.00;50.30;;;;;;5029801;28;20156;-59
2023/09/07 10:42:48;;;;;;;4.38;3.95;;;41.20;50.90;;;;;;5030162;28;20056;-59
2023/09/07 10:45:16;;;;;;;7.38;4.13;;;41.50;50.80;;;;;;5029174;28;20057;-60
2023/09/07 10:47:43;;;;;;;6.43;4.05;;;41.60;50.70;;;;;;5023088;28;20422;-60
2023/09/07 10:50:12;;;;;;;5.28;4.50;;;41.50;50.80;;;;;;5029199;28;20022;-59
2023/09/07 10:52:38;;;;;;;5.47;4.28;;;41.70;50.70;;;;;;5045301;28;20475;-59
2023/09/07 10:55:05;;;;;;;4.60;4.20;;;41.70;51.70;;;;;;5029475;28;20151;-60
2023/09/07 10:57:31;;;;;;;8.65;3.85;;;41.50;50.80;;;;;;5025708;28;20101;-59
2023/09/07 10:59:57;;;;;;;4.40;3.35;;;42.10;49.60;;;;;;5044683;28;20457;-60
2023/09/07 11:02:22;;;;;;;4.18;3.80;;;42.30;49.50;;;;;;5029534;28;20033;-59
2023/09/07 11:04:48;;;;;;;6.03;4.13;;;42.30;49.00;;;;;;5029671;28;20124;-59
2023/09/07 11:07:13;;;;;;;7.28;4.10;;;42.20;49.60;;;;;;5028990;28;20108;-59
2023/09/07 11:09:43;;;;;;;4.60;4.13;;;42.00;48.30;;;;;;5029225;28;20386;-59
2023/09/07 11:12:11;;;;;;;6.28;4.05;;;42.30;48.20;;;;;;5029672;28;20494;-59
2023/09/07 11:14:39;;;;;;;4.30;3.90;;;42.30;49.00;;;;;;5030062;28;20017;-59
2023/09/07 11:17:04;;;;;;;5.05;4.00;;;42.20;50.40;;;;;;5028613;28;20033;-59
2023/09/07 11:19:33;;;;;;;4.22;3.72;;;42.00;47.70;;;;;;5024445;28;20017;-59
2023/09/07 11:21:59;;;;;;;5.43;3.67;;;42.20;48.40;;;;;;5029371;28;20549;-59
2023/09/07 11:24:25;;;;;;;4.53;4.13;;;42.00;49.60;;;;;;5029478;28;20206;-59
2023/09/07 11:26:51;;;;;;;4.05;3.53;;;41.80;49.30;;;;;;5029016;28;20021;-59
2023/09/07 11:29:18;;;;;;;7.82;4.00;;;41.60;48.90;;;;;;5028160;28;20025;-59
2023/09/07 11:31:45;;;;;;;4.85;3.75;;;41.70;49.40;;;;;;5028298;28;20306;-59
2023/09/07 11:34:12;;;;;;;4.75;3.50;;;41.70;49.40;;;;;;5029683;28;20017;-59
2023/09/07 11:36:39;;;;;;;6.60;4.05;;;42.00;48.70;;;;;;5029276;28;20337;-59
2023/09/07 11:39:12;;;;;;;6.47;3.97;;;42.10;49.40;;;;;;5022286;28;20037;-60
2023/09/07 11:41:44;;;;;;;6.10;4.03;;;42.20;49.00;;;;;;5029588;28;20575;-59
2023/09/07 11:44:10;;;;;;;5.72;4.00;;;41.70;48.70;;;;;;5029338;28;20037;-59
2023/09/07 11:46:36;;;;;;;4.25;3.53;;;42.00;49.60;;;;;;5029359;28;20018;-60
2023/09/07 11:49:05;;;;;;;7.10;4.47;;;42.40;49.50;;;;;;5041255;28;20021;-59
2023/09/07 11:51:32;;;;;;;5.32;4.13;;;42.40;48.50;;;;;;5026754;28;20490;-59
2023/09/07 11:53:57;;;;;;;7.30;3.58;;;42.60;48.60;;;;;;5022120;28;20096;-59
2023/09/07 11:56:23;;;;;;;5.70;3.42;;;42.20;48.20;;;;;;5019975;28;20033;-59
2023/09/07 11:58:49;;;;;;;4.50;3.83;;;42.60;48.50;;;;;;5025383;28;20446;-59
2023/09/07 12:01:16;;;;;;;4.50;4.10;;;42.10;47.90;;;;;;5015543;28;20033;-59
2023/09/07 12:03:42;;;;;;;7.78;3.90;;;42.10;47.90;;;;;;5028684;28;20021;-59
2023/09/07 12:06:08;;;;;;;8.50;4.38;;;41.30;50.20;;;;;;5026266;28;20026;-59
2023/09/07 12:08:33;;;;;;;5.10;4.18;;;41.00;49.10;;;;;;5028551;28;20080;-59
2023/09/07 12:10:59;;;;;;;5.57;3.78;;;40.90;50.00;;;;;;5028153;28;20032;-59
2023/09/07 12:13:26;;;;;;;9.30;4.93;;;40.50;49.50;;;;;;5044441;28;20026;-59
2023/09/07 12:15:51;;;;;;;7.07;4.47;;;39.90;50.60;;;;;;5028527;28;20048;-59
2023/09/07 12:18:17;;;;;;;8.05;4.93;;;39.20;52.10;;;;;;5022951;28;20475;-59
2023/09/07 12:20:44;;;;;;;6.70;4.70;;;38.60;53.30;;;;;;5028309;28;20080;-60
2023/09/07 12:23:10;;;;;;;6.85;4.90;;;38.20;52.50;;;;;;5029107;28;20045;-59
2023/09/07 12:25:36;;;;;;;9.55;4.68;;;38.10;54.10;;;;;;5044227;28;20060;-59
2023/09/07 12:28:02;;;;;;;11.85;5.38;;;37.70;52.50;;;;;;5026214;28;20025;-59
2023/09/07 12:30:28;;;;;;;5.45;4.82;;;37.30;55.00;;;;;;5028464;28;20211;-59
2023/09/07 12:32:53;;;;;;;6.88;4.93;;;36.70;53.40;;;;;;5028750;28;20025;-58
2023/09/07 12:35:20;;;;;;;7.72;4.78;;;36.70;54.00;;;;;;5028863;28;20025;-58